sensor_id;sensor_type;location;lat;lon;timestamp;P1;durP1;ratioP1;P2;durP2;ratioP2
6638;SDS011;3355;52.882;8.430;2024-03-17T00:05:05;5.90;;;2.17;;
6638;SDS011;3355;52.882;8.430;2024-03-17T00:10:15;8.57;;;2.70;;
6638;SDS011;3355;52.882;8.430;2024-03-17T00:12:41;5.90;;;2.53;;
6638;SDS011;3355;52.882;8.430;2024-03-17T00:15:08;12.27;;;2.23;;
6638;SDS011;3355;52.882;8.430;2024-03-17T00:17:33;3.63;;;1.90;;
6638;SDS011;3355;52.882;8.430;2024-03-17T00:20:00;7.30;;;2.23;;
6638;SDS011;3355;52.882;8.430;2024-03-17T00:22:31;8.30;;;2.50;;
6638;SDS011;3355;52.882;8.430;2024-03-17T00:25:02;3.97;;;2.10;;
6638;SDS011;3355;52.882;8.430;2024-03-17T00:27:28;8.10;;;1.80;;
6638;SDS011;3355;52.882;8.430;2024-03-17T00:29:57;11.00;;;2.63;;
6638;SDS011;3355;52.882;8.430;2024-03-17T01:52:50;7.00;;;2.67;;
6638;SDS011;3355;52.882;8.430;2024-03-17T01:55:17;4.77;;;2.20;;
6638;SDS011;3355;52.882;8.430;2024-03-17T01:57:43;10.50;;;2.53;;
6638;SDS011;3355;52.882;8.430;2024-03-17T02:00:10;4.83;;;2.20;;
6638;SDS011;3355;52.882;8.430;2024-03-17T02:02:37;6.77;;;2.53;;
6638;SDS011;3355;52.882;8.430;2024-03-17T02:05:04;7.43;;;2.10;;
6638;SDS011;3355;52.882;8.430;2024-03-17T02:07:29;3.80;;;2.07;;
6638;SDS011;3355;52.882;8.430;2024-03-17T02:09:58;6.30;;;2.40;;
6638;SDS011;3355;52.882;8.430;2024-03-17T02:12:25;2.77;;;1.80;;
6638;SDS011;3355;52.882;8.430;2024-03-17T02:14:54;4.57;;;2.87;;
6638;SDS011;3355;52.882;8.430;2024-03-17T02:17:19;4.43;;;2.10;;
6638;SDS011;3355;52.882;8.430;2024-03-17T02:19:46;7.80;;;2.67;;
6638;SDS011;3355;52.882;8.430;2024-03-17T02:22:14;2.70;;;1.53;;
6638;SDS011;3355;52.882;8.430;2024-03-17T02:24:42;4.43;;;2.30;;
6638;SDS011;3355;52.882;8.430;2024-03-17T02:27:07;4.93;;;1.97;;
6638;SDS011;3355;52.882;8.430;2024-03-17T02:29:34;4.20;;;1.90;;
6638;SDS011;3355;52.882;8.430;2024-03-17T02:32:01;7.43;;;3.00;;
6638;SDS011;3355;52.882;8.430;2024-03-17T02:34:32;3.53;;;1.53;;
6638;SDS011;3355;52.882;8.430;2024-03-17T02:36:57;4.50;;;1.87;;
6638;SDS011;3355;52.882;8.430;2024-03-17T02:39:25;6.60;;;2.00;;
6638;SDS011;3355;52.882;8.430;2024-03-17T02:41:59;5.63;;;2.50;;
6638;SDS011;3355;52.882;8.430;2024-03-17T02:44:25;4.90;;;2.10;;
6638;SDS011;3355;52.882;8.430;2024-03-17T02:46:52;8.07;;;2.23;;
6638;SDS011;3355;52.882;8.430;2024-03-17T02:49:19;5.33;;;2.20;;
6638;SDS011;3355;52.882;8.430;2024-03-17T02:51:45;3.67;;;2.30;;
6638;SDS011;3355;52.882;8.430;2024-03-17T02:54:12;4.10;;;1.90;;
6638;SDS011;3355;52.882;8.430;2024-03-17T02:56:42;4.23;;;1.80;;
6638;SDS011;3355;52.882;8.430;2024-03-17T02:59:28;4.27;;;1.70;;
6638;SDS011;3355;52.882;8.430;2024-03-17T03:02:01;7.17;;;2.50;;
6638;SDS011;3355;52.882;8.430;2024-03-17T06:29:20;5.17;;;3.80;;
6638;SDS011;3355;52.882;8.430;2024-03-17T06:31:48;7.10;;;3.40;;
6638;SDS011;3355;52.882;8.430;2024-03-17T06:34:16;6.33;;;3.43;;
6638;SDS011;3355;52.882;8.430;2024-03-17T06:36:43;10.27;;;3.97;;
6638;SDS011;3355;52.882;8.430;2024-03-17T06:39:12;6.33;;;3.57;;
6638;SDS011;3355;52.882;8.430;2024-03-17T06:41:42;5.00;;;3.03;;
6638;SDS011;3355;52.882;8.430;2024-03-17T06:44:14;5.53;;;3.53;;
6638;SDS011;3355;52.882;8.430;2024-03-17T06:46:57;5.43;;;3.17;;
6638;SDS011;3355;52.882;8.430;2024-03-17T06:49:44;8.30;;;3.57;;
6638;SDS011;3355;52.882;8.430;2024-03-17T06:52:11;5.80;;;3.57;;
6638;SDS011;3355;52.882;8.430;2024-03-17T06:54:39;6.43;;;4.00;;
6638;SDS011;3355;52.882;8.430;2024-03-17T06:57:08;10.33;;;4.27;;
6638;SDS011;3355;52.882;8.430;2024-03-17T06:59:38;6.53;;;4.07;;
6638;SDS011;3355;52.882;8.430;2024-03-17T07:05:10;10.30;;;4.73;;
6638;SDS011;3355;52.882;8.430;2024-03-17T07:07:39;4.63;;;3.30;;
6638;SDS011;3355;52.882;8.430;2024-03-17T07:10:09;8.37;;;4.50;;
6638;SDS011;3355;52.882;8.430;2024-03-17T07:12:53;16.53;;;4.10;;
6638;SDS011;3355;52.882;8.430;2024-03-17T07:44:00;6.80;;;3.37;;
6638;SDS011;3355;52.882;8.430;2024-03-17T07:46:27;6.53;;;3.90;;
6638;SDS011;3355;52.882;8.430;2024-03-17T07:48:57;6.33;;;4.00;;
6638;SDS011;3355;52.882;8.430;2024-03-17T07:51:39;8.47;;;4.53;;
6638;SDS011;3355;52.882;8.430;2024-03-17T07:54:10;8.60;;;3.67;;
6638;SDS011;3355;52.882;8.430;2024-03-17T07:56:42;7.97;;;3.80;;
6638;SDS011;3355;52.882;8.430;2024-03-17T08:50:34;6.50;;;2.30;;
6638;SDS011;3355;52.882;8.430;2024-03-17T08:53:01;3.00;;;1.40;;
6638;SDS011;3355;52.882;8.430;2024-03-17T08:55:27;2.63;;;1.57;;
6638;SDS011;3355;52.882;8.430;2024-03-17T08:57:54;3.67;;;1.83;;
6638;SDS011;3355;52.882;8.430;2024-03-17T09:00:21;5.20;;;2.00;;
6638;SDS011;3355;52.882;8.430;2024-03-17T09:02:47;5.30;;;1.97;;
6638;SDS011;3355;52.882;8.430;2024-03-17T09:05:14;5.43;;;2.10;;
6638;SDS011;3355;52.882;8.430;2024-03-17T09:07:42;3.63;;;1.77;;
6638;SDS011;3355;52.882;8.430;2024-03-17T09:10:09;4.63;;;2.53;;
6638;SDS011;3355;52.882;8.430;2024-03-17T09:12:38;5.33;;;1.90;;
6638;SDS011;3355;52.882;8.430;2024-03-17T09:15:05;7.20;;;2.17;;
6638;SDS011;3355;52.882;8.430;2024-03-17T09:17:33;7.43;;;2.10;;
6638;SDS011;3355;52.882;8.430;2024-03-17T09:20:00;7.20;;;2.07;;
6638;SDS011;3355;52.882;8.430;2024-03-17T09:22:26;4.70;;;1.60;;
6638;SDS011;3355;52.882;8.430;2024-03-17T09:24:56;3.63;;;2.30;;
6638;SDS011;3355;52.882;8.430;2024-03-17T09:27:22;3.23;;;1.90;;
6638;SDS011;3355;52.882;8.430;2024-03-17T09:29:51;5.97;;;2.53;;
6638;SDS011;3355;52.882;8.430;2024-03-17T09:32:17;3.70;;;1.93;;
6638;SDS011;3355;52.882;8.430;2024-03-17T09:34:46;5.10;;;1.80;;
6638;SDS011;3355;52.882;8.430;2024-03-17T09:37:13;6.13;;;2.67;;
6638;SDS011;3355;52.882;8.430;2024-03-17T09:39:40;3.80;;;1.97;;
6638;SDS011;3355;52.882;8.430;2024-03-17T09:42:15;4.93;;;2.40;;
6638;SDS011;3355;52.882;8.430;2024-03-17T09:44:43;8.47;;;1.87;;
6638;SDS011;3355;52.882;8.430;2024-03-17T09:47:12;3.20;;;1.77;;
6638;SDS011;3355;52.882;8.430;2024-03-17T09:49:44;6.13;;;2.40;;
6638;SDS011;3355;52.882;8.430;2024-03-17T09:52:19;5.47;;;1.97;;
6638;SDS011;3355;52.882;8.430;2024-03-17T09:55:08;5.50;;;2.20;;
6638;SDS011;3355;52.882;8.430;2024-03-17T09:57:36;4.03;;;1.53;;
6638;SDS011;3355;52.882;8.430;2024-03-17T10:00:09;5.83;;;2.20;;
6638;SDS011;3355;52.882;8.430;2024-03-17T10:02:45;4.23;;;2.10;;
6638;SDS011;3355;52.882;8.430;2024-03-17T10:05:18;6.07;;;2.77;;
6638;SDS011;3355;52.882;8.430;2024-03-17T10:07:45;6.83;;;2.63;;
6638;SDS011;3355;52.882;8.430;2024-03-17T10:10:13;8.27;;;2.60;;
6638;SDS011;3355;52.882;8.430;2024-03-17T10:12:43;7.90;;;2.20;;
6638;SDS011;3355;52.882;8.430;2024-03-17T10:15:10;4.47;;;2.30;;
6638;SDS011;3355;52.882;8.430;2024-03-17T10:17:37;8.50;;;2.30;;
6638;SDS011;3355;52.882;8.430;2024-03-17T10:20:13;3.20;;;1.93;;
6638;SDS011;3355;52.882;8.430;2024-03-17T10:22:49;4.23;;;2.20;;
6638;SDS011;3355;52.882;8.430;2024-03-17T10:25:23;4.20;;;2.40;;
6638;SDS011;3355;52.882;8.430;2024-03-17T10:27:51;4.70;;;2.67;;
6638;SDS011;3355;52.882;8.430;2024-03-17T10:30:18;4.83;;;2.50;;
6638;SDS011;3355;52.882;8.430;2024-03-17T10:32:46;5.23;;;2.70;;
6638;SDS011;3355;52.882;8.430;2024-03-17T10:35:27;8.87;;;2.63;;
6638;SDS011;3355;52.882;8.430;2024-03-17T10:37:54;8.43;;;2.63;;
6638;SDS011;3355;52.882;8.430;2024-03-17T10:40:21;5.77;;;2.10;;
6638;SDS011;3355;52.882;8.430;2024-03-17T10:42:47;4.63;;;2.30;;
6638;SDS011;3355;52.882;8.430;2024-03-17T10:45:16;4.70;;;2.20;;
6638;SDS011;3355;52.882;8.430;2024-03-17T10:47:42;8.13;;;2.10;;
6638;SDS011;3355;52.882;8.430;2024-03-17T10:50:12;4.53;;;2.57;;
6638;SDS011;3355;52.882;8.430;2024-03-17T10:52:41;3.67;;;2.00;;
6638;SDS011;3355;52.882;8.430;2024-03-17T10:55:10;5.90;;;3.07;;
6638;SDS011;3355;52.882;8.430;2024-03-17T10:57:45;3.87;;;2.00;;
6638;SDS011;3355;52.882;8.430;2024-03-17T11:00:13;6.50;;;3.07;;
6638;SDS011;3355;52.882;8.430;2024-03-17T11:02:44;4.10;;;2.20;;
6638;SDS011;3355;52.882;8.430;2024-03-17T11:05:11;7.43;;;3.43;;
6638;SDS011;3355;52.882;8.430;2024-03-17T11:07:39;6.20;;;3.30;;
6638;SDS011;3355;52.882;8.430;2024-03-17T11:10:10;5.03;;;3.10;;
6638;SDS011;3355;52.882;8.430;2024-03-17T11:12:41;5.17;;;2.97;;
6638;SDS011;3355;52.882;8.430;2024-03-17T11:20:42;8.23;;;3.40;;
6638;SDS011;3355;52.882;8.430;2024-03-17T11:23:08;5.30;;;3.93;;
6638;SDS011;3355;52.882;8.430;2024-03-17T11:25:38;7.27;;;4.20;;
6638;SDS011;3355;52.882;8.430;2024-03-17T11:28:06;7.37;;;3.47;;
6638;SDS011;3355;52.882;8.430;2024-03-17T11:30:41;9.43;;;3.37;;
6638;SDS011;3355;52.882;8.430;2024-03-17T11:33:22;5.77;;;2.63;;
6638;SDS011;3355;52.882;8.430;2024-03-17T11:38:51;4.20;;;3.20;;
6638;SDS011;3355;52.882;8.430;2024-03-17T11:41:30;6.33;;;3.30;;
6638;SDS011;3355;52.882;8.430;2024-03-17T11:46:37;3.90;;;2.93;;
6638;SDS011;3355;52.882;8.430;2024-03-17T11:49:04;4.33;;;3.40;;
6638;SDS011;3355;52.882;8.430;2024-03-17T11:51:34;8.13;;;3.33;;
6638;SDS011;3355;52.882;8.430;2024-03-17T11:54:00;7.77;;;3.80;;
6638;SDS011;3355;52.882;8.430;2024-03-17T11:56:32;5.30;;;3.20;;
6638;SDS011;3355;52.882;8.430;2024-03-17T11:59:04;5.97;;;2.90;;
6638;SDS011;3355;52.882;8.430;2024-03-17T12:01:30;3.77;;;3.03;;
6638;SDS011;3355;52.882;8.430;2024-03-17T12:03:55;4.53;;;3.03;;
6638;SDS011;3355;52.882;8.430;2024-03-17T12:06:24;6.60;;;3.80;;
6638;SDS011;3355;52.882;8.430;2024-03-17T12:08:49;7.33;;;3.50;;
6638;SDS011;3355;52.882;8.430;2024-03-17T12:11:16;6.30;;;3.57;;
6638;SDS011;3355;52.882;8.430;2024-03-17T12:13:42;7.27;;;3.77;;
6638;SDS011;3355;52.882;8.430;2024-03-17T12:16:12;5.97;;;3.07;;
6638;SDS011;3355;52.882;8.430;2024-03-17T12:18:38;5.73;;;3.17;;
6638;SDS011;3355;52.882;8.430;2024-03-17T12:21:10;5.33;;;3.47;;
6638;SDS011;3355;52.882;8.430;2024-03-17T12:23:37;6.23;;;3.30;;
6638;SDS011;3355;52.882;8.430;2024-03-17T12:26:03;5.73;;;3.60;;
6638;SDS011;3355;52.882;8.430;2024-03-17T12:28:29;6.67;;;4.20;;
6638;SDS011;3355;52.882;8.430;2024-03-17T12:30:55;5.30;;;3.23;;
6638;SDS011;3355;52.882;8.430;2024-03-17T12:33:24;8.37;;;3.90;;
6638;SDS011;3355;52.882;8.430;2024-03-17T12:35:50;5.90;;;2.87;;
6638;SDS011;3355;52.882;8.430;2024-03-17T12:38:20;5.03;;;3.50;;
6638;SDS011;3355;52.882;8.430;2024-03-17T12:40:49;4.60;;;2.63;;
6638;SDS011;3355;52.882;8.430;2024-03-17T12:43:14;9.27;;;3.40;;
6638;SDS011;3355;52.882;8.430;2024-03-17T12:45:41;6.00;;;3.23;;
6638;SDS011;3355;52.882;8.430;2024-03-17T12:48:12;3.50;;;3.20;;
6638;SDS011;3355;52.882;8.430;2024-03-17T12:50:43;6.73;;;3.90;;
6638;SDS011;3355;52.882;8.430;2024-03-17T12:53:13;8.63;;;3.60;;
6638;SDS011;3355;52.882;8.430;2024-03-17T12:55:41;5.63;;;3.40;;
6638;SDS011;3355;52.882;8.430;2024-03-17T12:58:29;4.17;;;3.33;;
6638;SDS011;3355;52.882;8.430;2024-03-17T13:01:13;4.90;;;3.40;;
6638;SDS011;3355;52.882;8.430;2024-03-17T13:03:39;5.17;;;3.70;;
6638;SDS011;3355;52.882;8.430;2024-03-17T13:06:08;5.20;;;3.57;;
6638;SDS011;3355;52.882;8.430;2024-03-17T13:08:35;5.20;;;3.03;;
6638;SDS011;3355;52.882;8.430;2024-03-17T13:11:02;5.00;;;3.63;;
6638;SDS011;3355;52.882;8.430;2024-03-17T13:13:30;4.27;;;3.07;;
6638;SDS011;3355;52.882;8.430;2024-03-17T13:15:57;5.10;;;3.70;;
6638;SDS011;3355;52.882;8.430;2024-03-17T13:18:23;5.53;;;3.43;;
6638;SDS011;3355;52.882;8.430;2024-03-17T13:20:50;8.67;;;3.83;;
6638;SDS011;3355;52.882;8.430;2024-03-17T13:23:18;5.83;;;3.93;;
6638;SDS011;3355;52.882;8.430;2024-03-17T13:25:46;7.70;;;3.97;;
6638;SDS011;3355;52.882;8.430;2024-03-17T13:28:13;4.10;;;3.33;;
6638;SDS011;3355;52.882;8.430;2024-03-17T13:30:41;4.93;;;3.50;;
6638;SDS011;3355;52.882;8.430;2024-03-17T13:33:08;6.10;;;4.37;;
6638;SDS011;3355;52.882;8.430;2024-03-17T13:35:36;4.23;;;2.90;;
6638;SDS011;3355;52.882;8.430;2024-03-17T13:38:04;4.13;;;3.03;;
6638;SDS011;3355;52.882;8.430;2024-03-17T13:40:32;6.83;;;3.80;;
6638;SDS011;3355;52.882;8.430;2024-03-17T13:42:58;10.30;;;4.20;;
6638;SDS011;3355;52.882;8.430;2024-03-17T13:45:25;5.10;;;3.10;;
6638;SDS011;3355;52.882;8.430;2024-03-17T13:47:55;4.87;;;3.93;;
6638;SDS011;3355;52.882;8.430;2024-03-17T13:50:22;4.73;;;3.80;;
6638;SDS011;3355;52.882;8.430;2024-03-17T13:52:48;8.83;;;3.90;;
6638;SDS011;3355;52.882;8.430;2024-03-17T13:55:15;5.80;;;3.30;;
6638;SDS011;3355;52.882;8.430;2024-03-17T13:57:42;8.70;;;4.17;;
6638;SDS011;3355;52.882;8.430;2024-03-17T14:00:09;5.30;;;3.13;;
6638;SDS011;3355;52.882;8.430;2024-03-17T14:02:40;5.00;;;3.77;;
6638;SDS011;3355;52.882;8.430;2024-03-17T14:05:08;8.30;;;3.47;;
6638;SDS011;3355;52.882;8.430;2024-03-17T14:07:39;5.87;;;4.17;;
6638;SDS011;3355;52.882;8.430;2024-03-17T14:10:06;4.50;;;3.30;;
6638;SDS011;3355;52.882;8.430;2024-03-17T14:12:33;4.17;;;2.80;;
6638;SDS011;3355;52.882;8.430;2024-03-17T14:15:00;6.13;;;3.30;;
6638;SDS011;3355;52.882;8.430;2024-03-17T14:17:26;5.60;;;3.57;;
6638;SDS011;3355;52.882;8.430;2024-03-17T14:19:53;6.00;;;3.40;;
6638;SDS011;3355;52.882;8.430;2024-03-17T14:22:20;5.80;;;3.30;;
6638;SDS011;3355;52.882;8.430;2024-03-17T14:24:49;4.47;;;3.37;;
6638;SDS011;3355;52.882;8.430;2024-03-17T14:27:16;9.43;;;3.90;;
6638;SDS011;3355;52.882;8.430;2024-03-17T14:29:43;6.53;;;3.47;;
6638;SDS011;3355;52.882;8.430;2024-03-17T14:32:09;7.70;;;3.00;;
6638;SDS011;3355;52.882;8.430;2024-03-17T14:34:41;4.90;;;3.33;;
6638;SDS011;3355;52.882;8.430;2024-03-17T14:37:26;5.47;;;3.70;;
6638;SDS011;3355;52.882;8.430;2024-03-17T14:39:52;6.17;;;4.50;;
6638;SDS011;3355;52.882;8.430;2024-03-17T14:42:19;7.40;;;3.87;;
6638;SDS011;3355;52.882;8.430;2024-03-17T14:44:46;6.00;;;3.70;;
6638;SDS011;3355;52.882;8.430;2024-03-17T14:47:13;6.63;;;5.10;;
6638;SDS011;3355;52.882;8.430;2024-03-17T14:49:39;5.30;;;3.80;;
6638;SDS011;3355;52.882;8.430;2024-03-17T14:52:06;8.87;;;5.53;;
6638;SDS011;3355;52.882;8.430;2024-03-17T14:54:36;9.83;;;4.10;;
6638;SDS011;3355;52.882;8.430;2024-03-17T14:57:05;6.50;;;3.63;;
6638;SDS011;3355;52.882;8.430;2024-03-17T14:59:35;4.70;;;3.70;;
6638;SDS011;3355;52.882;8.430;2024-03-17T15:02:14;6.43;;;4.10;;
6638;SDS011;3355;52.882;8.430;2024-03-17T15:04:41;3.83;;;3.20;;
6638;SDS011;3355;52.882;8.430;2024-03-17T15:07:08;6.30;;;4.20;;
6638;SDS011;3355;52.882;8.430;2024-03-17T15:09:42;6.50;;;5.80;;
6638;SDS011;3355;52.882;8.430;2024-03-17T15:12:10;8.47;;;3.83;;
6638;SDS011;3355;52.882;8.430;2024-03-17T15:14:37;6.70;;;3.90;;
6638;SDS011;3355;52.882;8.430;2024-03-17T15:17:06;6.10;;;4.00;;
6638;SDS011;3355;52.882;8.430;2024-03-17T15:19:32;4.10;;;3.40;;
6638;SDS011;3355;52.882;8.430;2024-03-17T15:21:59;4.10;;;3.50;;
6638;SDS011;3355;52.882;8.430;2024-03-17T15:24:26;9.30;;;4.33;;
6638;SDS011;3355;52.882;8.430;2024-03-17T15:26:57;5.63;;;3.37;;
6638;SDS011;3355;52.882;8.430;2024-03-17T15:29:32;3.93;;;3.20;;
6638;SDS011;3355;52.882;8.430;2024-03-17T15:32:01;6.10;;;3.93;;
6638;SDS011;3355;52.882;8.430;2024-03-17T15:34:29;5.10;;;4.17;;
6638;SDS011;3355;52.882;8.430;2024-03-17T15:37:05;7.67;;;3.87;;
6638;SDS011;3355;52.882;8.430;2024-03-17T15:39:34;5.80;;;3.60;;
6638;SDS011;3355;52.882;8.430;2024-03-17T15:42:06;6.47;;;4.40;;
6638;SDS011;3355;52.882;8.430;2024-03-17T15:44:32;5.83;;;3.30;;
6638;SDS011;3355;52.882;8.430;2024-03-17T15:46:59;5.63;;;3.63;;
6638;SDS011;3355;52.882;8.430;2024-03-17T15:49:28;6.20;;;3.47;;
6638;SDS011;3355;52.882;8.430;2024-03-17T15:52:01;6.60;;;4.20;;
6638;SDS011;3355;52.882;8.430;2024-03-17T15:54:28;6.43;;;3.87;;
6638;SDS011;3355;52.882;8.430;2024-03-17T15:57:13;8.90;;;4.40;;
6638;SDS011;3355;52.882;8.430;2024-03-17T15:59:58;4.70;;;3.60;;
6638;SDS011;3355;52.882;8.430;2024-03-17T16:02:33;5.37;;;3.00;;
6638;SDS011;3355;52.882;8.430;2024-03-17T16:05:03;9.37;;;3.80;;
6638;SDS011;3355;52.882;8.430;2024-03-17T16:07:46;5.67;;;3.50;;
6638;SDS011;3355;52.882;8.430;2024-03-17T16:10:16;7.07;;;4.23;;
6638;SDS011;3355;52.882;8.430;2024-03-17T16:12:45;5.50;;;2.90;;
6638;SDS011;3355;52.882;8.430;2024-03-17T16:15:12;5.73;;;3.47;;
6638;SDS011;3355;52.882;8.430;2024-03-17T16:17:38;5.53;;;3.10;;
6638;SDS011;3355;52.882;8.430;2024-03-17T16:20:05;5.10;;;3.23;;
6638;SDS011;3355;52.882;8.430;2024-03-17T16:22:34;6.97;;;3.70;;
6638;SDS011;3355;52.882;8.430;2024-03-17T16:25:02;6.73;;;4.80;;
6638;SDS011;3355;52.882;8.430;2024-03-17T16:27:30;5.97;;;3.70;;
6638;SDS011;3355;52.882;8.430;2024-03-17T16:29:57;5.70;;;4.00;;
6638;SDS011;3355;52.882;8.430;2024-03-17T16:32:26;5.47;;;3.23;;
6638;SDS011;3355;52.882;8.430;2024-03-17T16:35:06;7.80;;;3.17;;
6638;SDS011;3355;52.882;8.430;2024-03-17T16:37:36;6.40;;;4.00;;
6638;SDS011;3355;52.882;8.430;2024-03-17T16:41:28;5.00;;;3.43;;
6638;SDS011;3355;52.882;8.430;2024-03-17T16:43:26;6.60;;;3.70;;
6638;SDS011;3355;52.882;8.430;2024-03-17T16:45:59;6.37;;;4.37;;
6638;SDS011;3355;52.882;8.430;2024-03-17T16:48:27;4.23;;;3.17;;
6638;SDS011;3355;52.882;8.430;2024-03-17T16:50:53;3.77;;;3.10;;
6638;SDS011;3355;52.882;8.430;2024-03-17T16:53:23;4.90;;;3.47;;
6638;SDS011;3355;52.882;8.430;2024-03-17T16:55:52;6.07;;;3.87;;
6638;SDS011;3355;52.882;8.430;2024-03-17T16:58:19;7.30;;;4.70;;
6638;SDS011;3355;52.882;8.430;2024-03-17T17:00:45;8.83;;;4.33;;
6638;SDS011;3355;52.882;8.430;2024-03-17T17:03:13;7.03;;;3.80;;
6638;SDS011;3355;52.882;8.430;2024-03-17T17:05:46;4.83;;;3.80;;
6638;SDS011;3355;52.882;8.430;2024-03-17T17:08:35;8.77;;;4.20;;
6638;SDS011;3355;52.882;8.430;2024-03-17T17:11:18;5.73;;;3.47;;
6638;SDS011;3355;52.882;8.430;2024-03-17T17:16:39;3.90;;;3.50;;
6638;SDS011;3355;52.882;8.430;2024-03-17T17:19:17;9.13;;;4.20;;
6638;SDS011;3355;52.882;8.430;2024-03-17T17:21:48;5.73;;;3.40;;
6638;SDS011;3355;52.882;8.430;2024-03-17T17:24:21;8.50;;;3.90;;
6638;SDS011;3355;52.882;8.430;2024-03-17T17:27:06;7.23;;;3.77;;
6638;SDS011;3355;52.882;8.430;2024-03-17T17:29:57;6.77;;;3.70;;
6638;SDS011;3355;52.882;8.430;2024-03-17T17:32:27;11.60;;;4.30;;
6638;SDS011;3355;52.882;8.430;2024-03-17T17:34:55;5.83;;;4.70;;
6638;SDS011;3355;52.882;8.430;2024-03-17T17:37:22;9.23;;;5.30;;
6638;SDS011;3355;52.882;8.430;2024-03-17T17:39:48;8.33;;;4.47;;
6638;SDS011;3355;52.882;8.430;2024-03-17T17:42:14;4.90;;;4.10;;
6638;SDS011;3355;52.882;8.430;2024-03-17T17:44:41;8.97;;;5.93;;
6638;SDS011;3355;52.882;8.430;2024-03-17T17:47:07;10.17;;;5.97;;
6638;SDS011;3355;52.882;8.430;2024-03-17T17:49:34;6.83;;;5.17;;
6638;SDS011;3355;52.882;8.430;2024-03-17T17:52:02;9.63;;;4.63;;
6638;SDS011;3355;52.882;8.430;2024-03-17T17:54:29;6.87;;;5.63;;
6638;SDS011;3355;52.882;8.430;2024-03-17T17:56:57;7.23;;;4.70;;
6638;SDS011;3355;52.882;8.430;2024-03-17T17:59:23;14.87;;;8.87;;
6638;SDS011;3355;52.882;8.430;2024-03-17T18:01:52;14.70;;;9.77;;
6638;SDS011;3355;52.882;8.430;2024-03-17T18:04:20;33.17;;;20.87;;
6638;SDS011;3355;52.882;8.430;2024-03-17T18:06:46;14.53;;;11.73;;
6638;SDS011;3355;52.882;8.430;2024-03-17T18:09:14;10.40;;;6.07;;
6638;SDS011;3355;52.882;8.430;2024-03-17T18:11:47;6.70;;;5.60;;
6638;SDS011;3355;52.882;8.430;2024-03-17T18:14:13;5.40;;;4.73;;
6638;SDS011;3355;52.882;8.430;2024-03-17T18:16:39;7.47;;;5.10;;
6638;SDS011;3355;52.882;8.430;2024-03-17T18:19:09;7.70;;;4.93;;
6638;SDS011;3355;52.882;8.430;2024-03-17T18:24:57;6.90;;;5.03;;
6638;SDS011;3355;52.882;8.430;2024-03-17T18:27:24;6.00;;;5.20;;
6638;SDS011;3355;52.882;8.430;2024-03-17T18:29:57;5.60;;;4.37;;
6638;SDS011;3355;52.882;8.430;2024-03-17T18:32:27;6.50;;;4.57;;
6638;SDS011;3355;52.882;8.430;2024-03-17T18:34:55;7.17;;;5.20;;
6638;SDS011;3355;52.882;8.430;2024-03-17T18:37:22;7.30;;;5.63;;
6638;SDS011;3355;52.882;8.430;2024-03-17T18:39:51;8.20;;;5.30;;
6638;SDS011;3355;52.882;8.430;2024-03-17T18:42:19;12.37;;;5.67;;
6638;SDS011;3355;52.882;8.430;2024-03-17T18:44:46;6.53;;;4.40;;
6638;SDS011;3355;52.882;8.430;2024-03-17T18:47:12;8.43;;;5.40;;
6638;SDS011;3355;52.882;8.430;2024-03-17T18:49:39;7.43;;;4.80;;
6638;SDS011;3355;52.882;8.430;2024-03-17T18:52:06;5.17;;;4.67;;
6638;SDS011;3355;52.882;8.430;2024-03-17T18:54:33;7.83;;;4.60;;
6638;SDS011;3355;52.882;8.430;2024-03-17T18:56:59;8.30;;;5.33;;
6638;SDS011;3355;52.882;8.430;2024-03-17T18:59:27;8.67;;;5.10;;
6638;SDS011;3355;52.882;8.430;2024-03-17T19:01:54;7.83;;;4.87;;
6638;SDS011;3355;52.882;8.430;2024-03-17T19:04:24;8.47;;;5.23;;
6638;SDS011;3355;52.882;8.430;2024-03-17T19:06:51;6.80;;;5.63;;
6638;SDS011;3355;52.882;8.430;2024-03-17T19:09:18;7.80;;;5.33;;
6638;SDS011;3355;52.882;8.430;2024-03-17T19:11:44;10.10;;;4.73;;
6638;SDS011;3355;52.882;8.430;2024-03-17T19:14:11;9.17;;;4.87;;
6638;SDS011;3355;52.882;8.430;2024-03-17T19:16:40;7.07;;;4.87;;
6638;SDS011;3355;52.882;8.430;2024-03-17T19:19:06;8.03;;;4.93;;
6638;SDS011;3355;52.882;8.430;2024-03-17T19:21:33;9.27;;;5.40;;
6638;SDS011;3355;52.882;8.430;2024-03-17T19:24:03;5.17;;;4.33;;
6638;SDS011;3355;52.882;8.430;2024-03-17T19:26:29;4.03;;;3.63;;
6638;SDS011;3355;52.882;8.430;2024-03-17T19:28:56;7.37;;;4.50;;
6638;SDS011;3355;52.882;8.430;2024-03-17T19:31:23;5.70;;;4.47;;
6638;SDS011;3355;52.882;8.430;2024-03-17T19:33:51;4.93;;;3.90;;
6638;SDS011;3355;52.882;8.430;2024-03-17T19:36:17;6.93;;;4.10;;
6638;SDS011;3355;52.882;8.430;2024-03-17T19:38:44;11.23;;;3.90;;
6638;SDS011;3355;52.882;8.430;2024-03-17T19:41:12;5.27;;;4.73;;
6638;SDS011;3355;52.882;8.430;2024-03-17T19:43:39;9.50;;;5.30;;
6638;SDS011;3355;52.882;8.430;2024-03-17T19:46:10;4.50;;;4.10;;
6638;SDS011;3355;52.882;8.430;2024-03-17T19:48:49;6.20;;;4.00;;
6638;SDS011;3355;52.882;8.430;2024-03-17T19:51:21;7.87;;;4.20;;
6638;SDS011;3355;52.882;8.430;2024-03-17T19:53:50;6.93;;;5.40;;
6638;SDS011;3355;52.882;8.430;2024-03-17T19:56:18;5.23;;;4.73;;
6638;SDS011;3355;52.882;8.430;2024-03-17T19:58:45;6.43;;;3.93;;
6638;SDS011;3355;52.882;8.430;2024-03-17T20:01:15;5.70;;;3.90;;
6638;SDS011;3355;52.882;8.430;2024-03-17T20:03:41;7.10;;;5.10;;
6638;SDS011;3355;52.882;8.430;2024-03-17T20:06:17;5.80;;;4.23;;
6638;SDS011;3355;52.882;8.430;2024-03-17T20:09:00;6.47;;;4.10;;
6638;SDS011;3355;52.882;8.430;2024-03-17T20:11:27;6.20;;;4.03;;
6638;SDS011;3355;52.882;8.430;2024-03-17T20:13:53;5.80;;;3.30;;
6638;SDS011;3355;52.882;8.430;2024-03-17T20:16:20;5.30;;;3.77;;
6638;SDS011;3355;52.882;8.430;2024-03-17T20:18:50;3.80;;;3.10;;
6638;SDS011;3355;52.882;8.430;2024-03-17T20:21:17;6.10;;;3.40;;
6638;SDS011;3355;52.882;8.430;2024-03-17T20:23:52;5.57;;;3.60;;
6638;SDS011;3355;52.882;8.430;2024-03-17T20:26:20;8.80;;;3.03;;
6638;SDS011;3355;52.882;8.430;2024-03-17T20:28:48;9.07;;;3.33;;
6638;SDS011;3355;52.882;8.430;2024-03-17T20:31:15;7.53;;;4.70;;
6638;SDS011;3355;52.882;8.430;2024-03-17T20:33:42;8.00;;;4.10;;
6638;SDS011;3355;52.882;8.430;2024-03-17T20:36:09;6.60;;;4.60;;
6638;SDS011;3355;52.882;8.430;2024-03-17T20:38:35;4.20;;;3.37;;
6638;SDS011;3355;52.882;8.430;2024-03-17T20:41:03;5.03;;;3.50;;
6638;SDS011;3355;52.882;8.430;2024-03-17T20:43:31;5.10;;;3.50;;
6638;SDS011;3355;52.882;8.430;2024-03-17T20:45:57;7.90;;;3.83;;
6638;SDS011;3355;52.882;8.430;2024-03-17T20:48:24;7.33;;;3.87;;
6638;SDS011;3355;52.882;8.430;2024-03-17T20:50:55;4.33;;;2.77;;
6638;SDS011;3355;52.882;8.430;2024-03-17T20:53:21;5.50;;;3.27;;
6638;SDS011;3355;52.882;8.430;2024-03-17T20:55:50;5.43;;;3.57;;
6638;SDS011;3355;52.882;8.430;2024-03-17T20:58:17;4.03;;;3.37;;
6638;SDS011;3355;52.882;8.430;2024-03-17T21:00:46;7.30;;;3.70;;
6638;SDS011;3355;52.882;8.430;2024-03-17T21:03:16;6.30;;;4.03;;
6638;SDS011;3355;52.882;8.430;2024-03-17T21:05:43;4.07;;;3.17;;
6638;SDS011;3355;52.882;8.430;2024-03-17T21:08:10;6.13;;;4.00;;
6638;SDS011;3355;52.882;8.430;2024-03-17T21:10:41;5.47;;;3.83;;
6638;SDS011;3355;52.882;8.430;2024-03-17T21:13:08;4.80;;;4.30;;
6638;SDS011;3355;52.882;8.430;2024-03-17T21:15:34;5.67;;;3.20;;
6638;SDS011;3355;52.882;8.430;2024-03-17T21:18:02;9.90;;;4.60;;
6638;SDS011;3355;52.882;8.430;2024-03-17T21:20:31;4.93;;;3.30;;
6638;SDS011;3355;52.882;8.430;2024-03-17T21:22:58;9.20;;;2.93;;
6638;SDS011;3355;52.882;8.430;2024-03-17T21:25:25;5.33;;;3.00;;
6638;SDS011;3355;52.882;8.430;2024-03-17T21:27:51;6.90;;;3.30;;
6638;SDS011;3355;52.882;8.430;2024-03-17T21:30:19;7.00;;;3.47;;
6638;SDS011;3355;52.882;8.430;2024-03-17T21:32:45;5.53;;;3.53;;
6638;SDS011;3355;52.882;8.430;2024-03-17T21:35:17;4.77;;;3.23;;
6638;SDS011;3355;52.882;8.430;2024-03-17T21:37:43;8.13;;;3.60;;
6638;SDS011;3355;52.882;8.430;2024-03-17T21:40:10;3.20;;;2.90;;
6638;SDS011;3355;52.882;8.430;2024-03-17T21:42:38;6.03;;;3.27;;
6638;SDS011;3355;52.882;8.430;2024-03-17T21:45:06;7.23;;;4.00;;
6638;SDS011;3355;52.882;8.430;2024-03-17T21:47:37;11.00;;;3.27;;
6638;SDS011;3355;52.882;8.430;2024-03-17T21:50:04;7.27;;;4.03;;
6638;SDS011;3355;52.882;8.430;2024-03-17T21:52:33;6.40;;;3.23;;
6638;SDS011;3355;52.882;8.430;2024-03-17T21:55:00;8.93;;;3.60;;
6638;SDS011;3355;52.882;8.430;2024-03-17T21:57:28;6.27;;;3.13;;
6638;SDS011;3355;52.882;8.430;2024-03-17T21:59:55;5.07;;;2.97;;